Terminal Aerodrome Forecast
Issued by NWS

Home | Current Version | Previous Version | Graphics & Text | Print | Product List | Glossary On
Versions: 1 2 3 4 5 6 7 8 9 10 11 12 13 14 15 16 17
185
FTUS43 KMPX 192330
TAFRNH
TAF
KRNH 192330Z 2000/2024 03013G21KT P6SM BKN025
     FM200400 04011KT P6SM BKN035
     FM200800 06006KT P6SM BKN200=

USA.gov is the U.S. government's official web portal to all federal, state and local government web resources and services.